Time;durP1;ratioP1;P1;durP2;ratioP2;P2;SDS_P1;SDS_P2;PMS_P1;PMS_P2;Temp;Humidity;BMP_temperature;BMP_pressure;BME280_temperature;BME280_humidity;BME280_pressure;Samples;Min_cycle;Max_cycle;Signal;HPM_P1;HPM_P2
2022/12/04 00:01:24;;;;;;;;;;;;;;;-144.99;84.03;52696.78;4991921;28;19961;-73
2022/12/04 00:03:52;;;;;;;;;;;;;;;-144.99;84.16;52717.16;4993373;28;19966;-75
2022/12/04 00:06:20;;;;;;;;;;;;;;;-144.99;84.01;52690.66;4993926;28;20303;-74
2022/12/04 00:08:47;;;;;;;;;;;;;;;-144.99;83.89;52717.16;4990859;28;19987;-73
2022/12/04 00:11:15;;;;;;;;;;;;;;;-144.99;83.66;52717.16;4991121;28;19944;-74
2022/12/04 00:13:41;;;;;;;;;;;;;;;-144.99;83.88;52684.53;4993185;28;19926;-74
2022/12/04 00:16:09;;;;;;;;;;;;;;;-144.99;84.90;52680.47;4994234;28;19953;-73
2022/12/04 00:18:35;;;;;;;;;;;;;;;-144.99;84.64;52686.59;4993697;28;19936;-73
2022/12/04 00:21:03;;;;;;;;;;;;;;;-144.99;84.56;52713.09;4993565;28;19989;-74
2022/12/04 00:23:31;;;;;;;;;;;;;;;-144.99;84.50;52717.16;4993438;28;19970;-73
2022/12/04 00:26:00;;;;;;;;;;;;;;;-144.99;85.58;52688.63;4992709;28;19985;-73
2022/12/04 00:28:26;;;;;;;;;;;;;;;-144.99;85.16;52717.16;4989614;28;19946;-75
2022/12/04 00:30:53;;;;;;;;;;;;;;;-144.99;85.10;52668.22;4989427;28;20018;-73
2022/12/04 00:33:19;;;;;;;;;;;;;;;-144.99;85.12;52651.94;4992558;28;19964;-74
2022/12/04 00:35:46;;;;;;;;;;;;;;;-144.99;84.96;52688.63;4995563;28;19944;-72
2022/12/04 00:38:12;;;;;;;;;;;;;;;-144.99;84.81;52684.53;4997530;28;19988;-72
2022/12/04 00:40:47;;;;;;;;;;;;;;;-144.99;84.64;52680.47;4648481;28;10000791;-72
2022/12/04 00:43:14;;;;;;;;;;;;;;;-144.99;84.62;52696.78;4989044;28;20495;-72
2022/12/04 00:45:41;;;;;;;;;;;;;;;-144.99;84.89;52700.84;4994174;28;19948;-71
2022/12/04 00:48:07;;;;;;;;;;;;;;;-144.99;85.25;52635.63;4994551;28;19940;-72
2022/12/04 00:50:34;;;;;;;;;;;;;;;-144.99;85.31;52676.38;5005552;23;19960;-74
2022/12/04 00:53:00;;;;;;;;;;;;;;;-144.99;85.38;52688.63;4990726;28;19994;-76
2022/12/04 00:55:27;;;;;;;;;;;;;;;-144.99;85.08;52651.94;4985732;28;19937;-75
2022/12/04 00:57:55;;;;;;;;;;;;;;;-144.99;85.37;52674.34;4998333;28;19950;-75
2022/12/04 01:00:21;;;;;;;;;;;;;;;-144.99;85.63;52692.69;4994393;28;19966;-75
2022/12/04 01:02:51;;;;;;;;;;;;;;;-144.99;85.40;52696.78;4995013;28;20001;-76
2022/12/04 01:05:17;;;;;;;;;;;;;;;-144.99;85.38;52668.22;4998770;28;19945;-75
2022/12/04 01:07:44;;;;;;;;;;;;;;;-144.99;85.58;52680.47;4994605;28;20351;-73
2022/12/04 01:10:11;;;;;;;;;;;;;;;-144.99;85.47;52704.94;4992269;28;19986;-73
2022/12/04 01:12:38;;;;;;;;;;;;;;;-144.99;86.15;52676.38;4993130;28;20361;-76
2022/12/04 01:15:06;;;;;;;;;;;;;;;-144.99;85.86;52647.84;4992763;28;19968;-73
2022/12/04 01:17:35;;;;;;;;;;;;;;;-144.99;85.70;52664.16;4993432;28;19996;-75
2022/12/04 01:20:01;;;;;;;;;;;;;;;-144.99;85.86;52690.66;4990786;28;20032;-75
2022/12/04 01:22:28;;;;;;;;;;;;;;;-144.99;85.67;52688.63;4991317;28;19940;-75
2022/12/04 01:24:55;;;;;;;;;;;;;;;-144.99;85.82;52684.53;4993726;28;20439;-75
2022/12/04 01:27:21;;;;;;;;;;;;;;;-144.99;85.76;52692.69;4993931;28;20369;-74
2022/12/04 01:29:48;;;;;;;;;;;;;;;-144.99;86.37;52651.94;4994441;28;19929;-74
2022/12/04 01:32:16;;;;;;;;;;;;;;;-144.99;86.49;52676.38;4995225;28;19979;-74
2022/12/04 01:34:42;;;;;;;;;;;;;;;-144.99;87.05;52676.38;4993213;28;19925;-76
2022/12/04 01:37:09;;;;;;;;;;;;;;;-144.99;87.28;52639.69;4992689;28;20006;-75
2022/12/04 01:39:35;;;;;;;;;;;;;;;-144.99;87.37;52676.38;4997556;28;20464;-75
2022/12/04 01:42:02;;;;;;;;;;;;;;;-144.99;87.63;52678.44;5004850;28;19937;-77
2022/12/04 01:44:29;;;;;;;;;;;;;;;-144.99;88.14;52664.16;5013882;28;19977;-77
2022/12/04 01:46:58;;;;;;;;;;;;;;;-144.99;88.65;52680.47;5014677;28;19928;-77
2022/12/04 01:49:29;;;;;;;;;;;;;;;-144.99;88.70;52680.47;4995146;28;19944;-74
2022/12/04 01:51:58;;;;;;;;;;;;;;;-144.99;88.81;52696.78;4993199;28;19961;-74
2022/12/04 01:54:27;;;;;;;;;;;;;;;-144.99;88.55;52676.38;4985894;28;20095;-75
2022/12/04 01:56:57;;;;;;;;;;;;;;;-144.99;88.80;52664.16;4990766;28;20466;-75
2022/12/04 01:59:27;;;;;;;;;;;;;;;-144.99;88.94;52700.84;4992663;28;19936;-75
2022/12/04 02:01:56;;;;;;;;;;;;;;;-144.99;88.83;52678.44;4992726;28;20028;-75
2022/12/04 02:04:23;;;;;;;;;;;;;;;-144.99;88.71;52668.22;4993542;28;19943;-75
2022/12/04 02:06:51;;;;;;;;;;;;;;;-144.99;88.50;52680.47;4991343;28;20029;-75
2022/12/04 02:09:18;;;;;;;;;;;;;;;-144.99;88.75;52676.38;4985005;28;20014;-76
2022/12/04 02:11:51;;;;;;;;;;;;;;;-144.99;88.84;52700.84;4992149;28;20007;-75
2022/12/04 02:14:24;;;;;;;;;;;;;;;-144.99;89.21;52660.09;4992402;28;19980;-75
2022/12/04 02:16:54;;;;;;;;;;;;;;;-144.99;89.03;52680.47;4990989;28;19940;-75
2022/12/04 02:19:32;;;;;;;;;;;;;;;-144.99;89.36;52653.97;4993210;28;19992;-76
2022/12/04 02:22:03;;;;;;;;;;;;;;;-144.99;89.25;52651.94;4992036;28;20362;-76
2022/12/04 02:24:40;;;;;;;;;;;;;;;-144.99;89.55;52713.09;4992233;28;20409;-76
2022/12/04 02:27:10;;;;;;;;;;;;;;;-144.99;89.78;52615.25;4989842;28;19945;-75
2022/12/04 02:29:40;;;;;;;;;;;;;;;-144.99;89.79;52696.78;4986511;28;19938;-77
2022/12/04 02:32:14;;;;;;;;;;;;;;;-144.99;90.05;52668.22;4992165;28;19967;-76
2022/12/04 02:34:43;;;;;;;;;;;;;;;-144.99;90.24;52660.09;4993009;28;19954;-76
2022/12/04 02:37:14;;;;;;;;;;;;;;;-144.99;90.38;52615.25;4978301;28;20231;-75
2022/12/04 02:39:43;;;;;;;;;;;;;;;-144.99;90.30;52674.34;4972265;28;19958;-76
2022/12/04 02:42:12;;;;;;;;;;;;;;;-144.99;90.05;52672.31;4972186;28;19985;-76
2022/12/04 02:44:42;;;;;;;;;;;;;;;-144.99;90.00;52688.63;4968270;28;19930;-74
2022/12/04 02:47:11;;;;;;;;;;;;;;;-144.99;90.45;52676.38;4972108;28;19957;-77
2022/12/04 02:49:43;;;;;;;;;;;;;;;-144.99;90.57;52676.38;4971097;28;19941;-75
2022/12/04 02:52:11;;;;;;;;;;;;;;;-144.99;90.36;52678.44;4972704;28;20087;-76
2022/12/04 02:54:42;;;;;;;;;;;;;;;-144.99;90.33;52692.69;4972706;28;19950;-76
2022/12/04 02:57:13;;;;;;;;;;;;;;;-144.99;90.28;52688.63;4972248;28;19930;-76
2022/12/04 02:59:42;;;;;;;;;;;;;;;-144.99;90.32;52692.69;4970090;28;19946;-75
2022/12/04 03:02:12;;;;;;;;;;;;;;;-144.99;90.43;52680.47;4970533;28;20479;-75
2022/12/04 03:04:40;;;;;;;;;;;;;;;-144.99;90.63;52668.22;4972651;28;19944;-75
2022/12/04 03:07:15;;;;;;;;;;;;;;;-144.99;90.75;52696.78;4972309;28;20369;-75
2022/12/04 03:09:44;;;;;;;;;;;;;;;-144.99;90.95;52656.00;4971044;28;19978;-76
2022/12/04 03:12:12;;;;;;;;;;;;;;;-144.99;90.87;52623.38;4971556;28;19946;-75
2022/12/04 03:14:42;;;;;;;;;;;;;;;-144.99;90.81;52647.84;4971644;28;20019;-76
2022/12/04 03:17:14;;;;;;;;;;;;;;;-144.99;90.90;52676.38;4969209;28;20356;-75
2022/12/04 03:19:44;;;;;;;;;;;;;;;-144.99;91.32;52668.22;4965399;28;20329;-75
2022/12/04 03:22:13;;;;;;;;;;;;;;;-144.99;91.32;52676.38;4969871;28;19944;-75
2022/12/04 03:24:43;;;;;;;;;;;;;;;-144.99;91.20;52631.53;4973257;28;19987;-74
2022/12/04 03:27:12;;;;;;;;;;;;;;;-144.99;90.87;52629.50;4972977;28;19963;-75
2022/12/04 03:29:40;;;;;;;;;;;;;;;-144.99;91.07;52643.78;4971746;28;20095;-76
2022/12/04 03:32:11;;;;;;;;;;;;;;;-144.99;91.12;52664.16;4974669;28;19942;-75
2022/12/04 03:34:42;;;;;;;;;;;;;;;-144.99;91.24;52668.22;4975680;28;20013;-75
2022/12/04 03:37:13;;;;;;;;;;;;;;;-144.99;91.44;52704.94;4981487;28;19968;-75
2022/12/04 03:39:44;;;;;;;;;;;;;;;-144.99;91.33;52651.94;4978599;28;19991;-74
2022/12/04 03:42:14;;;;;;;;;;;;;;;-144.99;91.49;52656.00;4981539;28;19995;-74
2022/12/04 03:44:43;;;;;;;;;;;;;;;-144.99;91.23;52639.69;4979592;28;20486;-75
2022/12/04 03:47:12;;;;;;;;;;;;;;;-144.99;91.38;52688.63;4976042;28;20024;-74
2022/12/04 03:49:45;;;;;;;;;;;;;;;-144.99;91.72;52688.63;4975618;28;19943;-75
2022/12/04 03:52:17;;;;;;;;;;;;;;;-144.99;91.56;52709.00;4975427;28;19988;-74
2022/12/04 03:54:46;;;;;;;;;;;;;;;-144.99;91.69;52684.53;4967534;28;20299;-75
2022/12/04 03:57:15;;;;;;;;;;;;;;;-144.99;91.59;52653.97;4975182;28;19942;-76
2022/12/04 03:59:43;;;;;;;;;;;;;;;-144.99;91.81;52676.38;4972930;28;19981;-75
2022/12/04 04:02:12;;;;;;;;;;;;;;;-144.99;91.80;52668.22;4975866;28;20008;-75
2022/12/04 04:04:41;;;;;;;;;;;;;;;-144.99;91.86;52696.78;4976244;28;19951;-74
2022/12/04 04:07:14;;;;;;;;;;;;;;;-144.99;91.65;52709.00;4975728;28;19945;-75
2022/12/04 04:09:45;;;;;;;;;;;;;;;-144.99;91.95;52694.72;4974421;28;19941;-75
2022/12/04 04:12:13;;;;;;;;;;;;;;;-144.99;92.27;52664.16;4974614;28;20480;-75
2022/12/04 04:25:47;;;;;;;;;;;;;;;-144.99;92.11;52706.97;4974537;28;19949;-75
2022/12/04 04:28:28;;;;;;;;;;;;;;;-144.99;91.87;52692.69;4975123;28;20345;-76
2022/12/04 04:30:56;;;;;;;;;;;;;;;-144.99;91.87;52696.78;4973679;28;20004;-76
2022/12/04 04:33:23;;;;;;;;;;;;;;;-144.99;91.96;52680.47;4974734;28;19946;-76
2022/12/04 04:35:52;;;;;;;;;;;;;;;-144.99;91.95;52656.00;4976407;28;19950;-77
2022/12/04 04:38:24;;;;;;;;;;;;;;;-144.99;92.14;52684.53;4978302;28;20000;-76
2022/12/04 04:40:55;;;;;;;;;;;;;;;-144.99;92.19;52664.16;4972783;28;20108;-76
2022/12/04 04:43:25;;;;;;;;;;;;;;;-144.99;92.09;52639.69;4967417;28;19988;-75
2022/12/04 04:45:54;;;;;;;;;;;;;;;-144.99;92.30;52680.47;4975177;28;19960;-75
2022/12/04 04:48:23;;;;;;;;;;;;;;;-144.99;92.58;52643.78;4976095;28;19951;-76
2022/12/04 04:50:50;;;;;;;;;;;;;;;-144.99;92.54;52729.38;4974403;28;19968;-76
2022/12/04 04:53:18;;;;;;;;;;;;;;;-144.99;92.73;52664.16;4967407;28;20414;-75
2022/12/04 04:55:48;;;;;;;;;;;;;;;-144.99;92.59;52670.28;4976112;28;19944;-75
2022/12/04 04:58:17;;;;;;;;;;;;;;;-144.99;92.41;52678.44;4979157;28;19947;-76
2022/12/04 05:00:48;;;;;;;;;;;;;;;-144.99;92.47;52713.09;4971429;28;19961;-75
2022/12/04 05:03:15;;;;;;;;;;;;;;;-144.99;92.46;52688.63;4970583;28;20003;-75
2022/12/04 05:05:41;;;;;;;;;;;;;;;-144.99;92.47;52643.78;4974366;28;19944;-76
2022/12/04 05:08:08;;;;;;;;;;;;;;;-144.99;92.79;52668.22;4974623;28;20030;-75
2022/12/04 05:10:34;;;;;;;;;;;;;;;-144.99;92.70;52656.00;4974254;28;19992;-75
2022/12/04 05:13:02;;;;;;;;;;;;;;;-144.99;92.84;52653.97;4970067;28;19999;-75
2022/12/04 05:15:28;;;;;;;;;;;;;;;-144.99;92.88;52676.38;4965423;28;19992;-75
2022/12/04 05:17:55;;;;;;;;;;;;;;;-144.99;92.75;52645.81;4972600;28;19942;-75
2022/12/04 05:20:20;;;;;;;;;;;;;;;-144.99;92.97;52700.84;4965402;28;19962;-76
2022/12/04 05:22:47;;;;;;;;;;;;;;;-144.99;92.98;52668.22;4973772;28;20452;-76
2022/12/04 05:25:13;;;;;;;;;;;;;;;-144.99;93.16;52678.44;4974054;28;19974;-77
2022/12/04 05:27:40;;;;;;;;;;;;;;;-144.99;93.05;52639.69;4973857;28;20039;-77
2022/12/04 05:30:09;;;;;;;;;;;;;;;-144.99;92.92;52676.38;4966203;28;19963;-78
2022/12/04 05:32:36;;;;;;;;;;;;;;;-144.99;92.97;52717.16;4975588;28;19941;-78
2022/12/04 05:35:02;;;;;;;;;;;;;;;-144.99;93.10;52643.78;4974851;28;19969;-76
2022/12/04 05:37:29;;;;;;;;;;;;;;;-144.99;93.33;52660.09;4979271;28;19968;-76
2022/12/04 05:39:55;;;;;;;;;;;;;;;-144.99;93.64;52692.69;4967884;28;19964;-76
2022/12/04 05:42:22;;;;;;;;;;;;;;;-144.99;93.36;52643.78;4973110;28;20003;-77
2022/12/04 05:44:49;;;;;;;;;;;;;;;-144.99;93.74;52651.94;4973843;28;19927;-76
2022/12/04 05:47:17;;;;;;;;;;;;;;;-144.99;93.83;52684.53;4973685;28;19995;-76
2022/12/04 05:49:43;;;;;;;;;;;;;;;-144.99;94.23;52674.34;4970046;28;20363;-75
2022/12/04 05:52:10;;;;;;;;;;;;;;;-144.99;94.35;52656.00;4973531;28;19944;-75
2022/12/04 05:54:37;;;;;;;;;;;;;;;-144.99;94.76;52645.81;4964662;28;19960;-75
2022/12/04 05:57:03;;;;;;;;;;;;;;;-144.99;95.07;52635.63;4973509;28;20320;-74
2022/12/04 05:59:32;;;;;;;;;;;;;;;-144.99;95.08;52631.53;4970875;28;19980;-75
2022/12/04 06:01:59;;;;;;;;;;;;;;;-144.99;95.63;52664.16;4973121;28;20548;-75
2022/12/04 06:04:27;;;;;;;;;;;;;;;-144.99;95.20;52656.00;4973543;28;19986;-75
2022/12/04 06:06:54;;;;;;;;;;;;;;;-144.99;95.13;52656.00;4974271;28;20490;-74
2022/12/04 06:09:20;;;;;;;;;;;;;;;-144.99;95.20;52700.84;4965892;28;19951;-74
2022/12/04 06:11:47;;;;;;;;;;;;;;;-144.99;95.13;52656.00;4968590;28;20503;-74
2022/12/04 06:14:14;;;;;;;;;;;;;;;-144.99;94.96;52678.44;4974774;28;19945;-74
2022/12/04 06:16:43;;;;;;;;;;;;;;;-144.99;94.90;52656.00;4975569;28;19941;-74
2022/12/04 06:19:11;;;;;;;;;;;;;;;-144.99;95.28;52682.50;4973903;28;20040;-74
2022/12/04 06:21:40;;;;;;;;;;;;;;;-144.99;95.38;52662.13;4970941;28;20493;-76
2022/12/04 06:24:07;;;;;;;;;;;;;;;-144.99;95.20;52700.84;4973272;28;19990;-74
2022/12/04 06:26:33;;;;;;;;;;;;;;;-144.99;95.28;52651.94;4972073;28;20007;-75
2022/12/04 06:29:00;;;;;;;;;;;;;;;-144.99;95.49;52641.72;4972675;28;20510;-74
2022/12/04 06:31:28;;;;;;;;;;;;;;;-144.99;95.52;52643.78;4967525;28;20003;-74
2022/12/04 06:33:55;;;;;;;;;;;;;;;-144.99;95.19;52684.53;4966100;28;19941;-75
2022/12/04 06:36:22;;;;;;;;;;;;;;;-144.99;95.17;52651.94;4972289;28;20021;-75
2022/12/04 06:38:50;;;;;;;;;;;;;;;-144.99;95.44;52664.16;4971729;28;20366;-75
2022/12/04 06:41:18;;;;;;;;;;;;;;;-144.99;95.52;52674.34;4968285;28;19962;-75
2022/12/04 06:43:44;;;;;;;;;;;;;;;-144.99;95.74;52656.00;4972386;28;19937;-75
2022/12/04 06:46:12;;;;;;;;;;;;;;;-144.99;95.60;52651.94;4972755;28;20410;-76
2022/12/04 06:48:39;;;;;;;;;;;;;;;-144.99;95.51;52651.94;4971461;28;19968;-76
2022/12/04 06:51:07;;;;;;;;;;;;;;;-144.99;95.49;52647.84;4970916;28;19980;-76
2022/12/04 06:53:34;;;;;;;;;;;;;;;-144.99;95.98;52678.44;4972263;28;20364;-76
2022/12/04 06:56:07;;;;;;;;;;;;;;;-144.99;95.96;52660.09;4972572;28;19985;-75
2022/12/04 06:58:35;;;;;;;;;;;;;;;-144.99;95.87;52625.44;4972382;28;19997;-75
2022/12/04 07:01:06;;;;;;;;;;;;;;;-144.99;96.00;52656.00;4970746;28;19974;-75
2022/12/04 07:03:32;;;;;;;;;;;;;;;-144.99;96.08;52641.72;4972813;28;19948;-75
2022/12/04 07:05:59;;;;;;;;;;;;;;;-144.99;96.01;52631.53;5014992;23;19968;-71
2022/12/04 07:08:25;;;;;;;;;;;;;;;-144.99;96.03;52619.31;4993241;28;20336;-71
2022/12/04 07:10:52;;;;;;;;;;;;;;;-144.99;96.16;52639.69;4998184;28;19964;-71
2022/12/04 07:13:19;;;;;;;;;;;;;;;-144.99;96.37;52674.34;5006476;28;19960;-71
2022/12/04 07:15:49;;;;;;;;;;;;;;;-144.99;96.35;52656.00;5002135;28;19956;-71
2022/12/04 07:18:15;;;;;;;;;;;;;;;-144.99;96.53;52711.03;4992898;28;19964;-71
2022/12/04 07:20:42;;;;;;;;;;;;;;;-144.99;96.52;52658.03;5004237;28;19941;-72
2022/12/04 07:23:11;;;;;;;;;;;;;;;-144.99;96.81;52660.09;5000857;28;19952;-72
2022/12/04 07:25:39;;;;;;;;;;;;;;;-144.99;96.50;52670.28;5010387;28;19961;-74
2022/12/04 07:28:05;;;;;;;;;;;;;;;-144.99;96.52;52715.13;5016018;28;19953;-74
2022/12/04 07:30:33;;;;;;;;;;;;;;;-144.99;96.47;52639.69;5012581;28;19985;-74
2022/12/04 07:33:00;;;;;;;;;;;;;;;-144.99;96.49;52643.78;5015445;28;19965;-72
2022/12/04 07:35:26;;;;;;;;;;;;;;;-144.99;96.56;52653.97;5009424;28;19966;-73
2022/12/04 07:37:53;;;;;;;;;;;;;;;-144.99;96.42;52662.13;5013108;28;20003;-73
2022/12/04 07:40:19;;;;;;;;;;;;;;;-144.99;96.26;52647.84;5005803;28;19967;-74
2022/12/04 07:42:46;;;;;;;;;;;;;;;-144.99;96.51;52639.69;5007016;28;19926;-74
2022/12/04 07:45:14;;;;;;;;;;;;;;;-144.99;96.66;52668.22;5007422;28;19964;-73
2022/12/04 07:47:44;;;;;;;;;;;;;;;-144.99;96.92;52678.44;5002482;28;19965;-72
2022/12/04 07:50:10;;;;;;;;;;;;;;;-144.99;96.88;52615.25;4994761;28;19976;-72
2022/12/04 07:52:37;;;;;;;;;;;;;;;-144.99;96.34;52698.81;4988936;28;20515;-72
2022/12/04 07:55:04;;;;;;;;;;;;;;;-144.99;96.21;52647.84;4999152;28;19956;-73
2022/12/04 07:57:30;;;;;;;;;;;;;;;-144.99;98.63;52629.50;4999338;28;19969;-75
2022/12/04 07:59:57;;;;;;;;;;;;;;;-144.99;97.85;52647.84;4998424;28;19926;-73
2022/12/04 08:02:25;;;;;;;;;;;;;;;-144.99;100.00;52653.97;4988516;28;19965;-74
2022/12/04 08:04:53;;;;;;;;;;;;;;;-144.99;100.00;52651.94;4981964;28;19970;-73
2022/12/04 08:07:19;;;;;;;;;;;;;;;-144.99;99.48;52631.53;4994412;28;19944;-73
2022/12/04 08:09:46;;;;;;;;;;;;;;;-144.99;100.00;52664.16;4993208;28;19997;-74
2022/12/04 08:12:12;;;;;;;;;;;;;;;-144.99;100.00;52647.84;4994961;28;19946;-73
2022/12/04 08:14:39;;;;;;;;;;;;;;;-144.99;100.00;52637.66;4993928;28;19958;-74
2022/12/04 08:17:05;;;;;;;;;;;;;;;-144.99;100.00;52639.69;4994130;28;19942;-73
2022/12/04 08:19:32;;;;;;;;;;;;;;;-144.99;100.00;52623.38;4993254;28;19953;-75
2022/12/04 08:22:00;;;;;;;;;;;;;;;-144.99;100.00;52635.63;4993313;28;19960;-73
2022/12/04 08:24:26;;;;;;;;;;;;;;;-144.99;100.00;52637.66;4993246;28;19966;-72
2022/12/04 08:26:53;;;;;;;;;;;;;;;-144.99;100.00;52627.47;4993028;28;20012;-73
2022/12/04 08:29:19;;;;;;;;;;;;;;;-144.99;98.77;52623.38;4993807;28;19946;-73
2022/12/04 08:31:48;;;;;;;;;;;;;;;-144.99;98.91;52649.88;4989578;28;20452;-73
2022/12/04 08:34:15;;;;;;;;;;;;;;;-144.99;98.00;52662.13;4991104;28;20020;-74
2022/12/04 08:36:41;;;;;;;;;;;;;;;-144.99;98.94;52635.63;4990685;28;20443;-73
2022/12/04 08:39:12;;;;;;;;;;;;;;;-144.99;96.92;52639.69;4993130;28;19948;-74
2022/12/04 08:41:39;;;;;;;;;;;;;;;-144.99;96.70;52651.94;4992619;28;19966;-73
2022/12/04 08:44:06;;;;;;;;;;;;;;;-144.99;96.35;52664.16;4980459;28;20035;-73
2022/12/04 08:46:32;;;;;;;;;;;;;;;-144.99;96.05;52643.78;4990407;28;20055;-74
2022/12/04 08:48:59;;;;;;;;;;;;;;;-144.99;95.37;52637.66;4998262;28;19930;-74
2022/12/04 08:51:26;;;;;;;;;;;;;;;-144.99;95.34;52635.63;4999562;28;19944;-72
2022/12/04 08:53:54;;;;;;;;;;;;;;;-144.99;95.38;52603.00;4998175;28;19995;-73
2022/12/04 08:56:22;;;;;;;;;;;;;;;-144.99;95.00;52635.63;5001359;28;20477;-73
2022/12/04 08:58:49;;;;;;;;;;;;;;;-144.99;94.60;52651.94;5000287;28;19940;-73
2022/12/04 09:01:15;;;;;;;;;;;;;;;-144.99;94.58;52651.94;4999464;28;20499;-73
2022/12/04 09:03:42;;;;;;;;;;;;;;;-144.99;94.63;52627.47;5003901;28;19977;-73
2022/12/04 09:06:10;;;;;;;;;;;;;;;-144.99;94.55;52617.28;5000274;28;19979;-72
2022/12/04 09:08:36;;;;;;;;;;;;;;;-144.99;94.38;52635.63;5000047;28;19947;-74
2022/12/04 09:11:03;;;;;;;;;;;;;;;-144.99;94.04;52633.59;4996584;28;20196;-73
2022/12/04 09:13:31;;;;;;;;;;;;;;;-144.99;94.09;52635.63;4997597;28;20006;-72
2022/12/04 09:15:57;;;;;;;;;;;;;;;-144.99;93.92;52643.78;4985625;28;20508;-72
2022/12/04 09:18:24;;;;;;;;;;;;;;;-144.99;93.82;52647.84;4976896;28;19940;-73
2022/12/04 09:20:55;;;;;;;;;;;;;;;-144.99;93.73;52635.63;4988608;28;19946;-74
2022/12/04 09:23:21;;;;;;;;;;;;;;;-144.99;93.49;52631.53;4991540;28;19933;-74
2022/12/04 09:25:48;;;;;;;;;;;;;;;-144.99;93.27;52682.50;4991180;28;19968;-72
2022/12/04 09:28:14;;;;;;;;;;;;;;;-144.99;93.30;52643.78;4984688;28;19944;-73
2022/12/04 09:30:45;;;;;;;;;;;;;;;-144.99;93.08;52660.09;4991351;28;19998;-74
2022/12/04 09:33:11;;;;;;;;;;;;;;;-144.99;92.56;52664.16;4991177;28;19932;-73
2022/12/04 09:35:41;;;;;;;;;;;;;;;-144.99;92.35;52615.25;4991090;28;19933;-73
2022/12/04 09:38:07;;;;;;;;;;;;;;;-144.99;92.31;52603.00;4297647;28;10000738;-72
2022/12/04 09:40:40;;;;;;;;;;;;;;;-144.99;92.31;52635.63;4982537;28;20008;-73
2022/12/04 09:43:13;;;;;;;;;;;;;;;-144.99;91.96;52631.53;4982451;28;19965;-73
2022/12/04 09:45:42;;;;;;;;;;;;;;;-144.99;91.49;52639.69;4982455;28;20460;-74
2022/12/04 09:48:11;;;;;;;;;;;;;;;-144.99;92.05;52637.66;4985796;28;19948;-75
2022/12/04 09:50:40;;;;;;;;;;;;;;;-144.99;91.55;52615.25;4973949;28;19948;-75
2022/12/04 09:53:10;;;;;;;;;;;;;;;-144.99;90.91;52649.88;4981221;28;20002;-75
2022/12/04 09:55:39;;;;;;;;;;;;;;;-144.99;90.48;52656.00;4975321;28;19960;-74
2022/12/04 09:58:07;;;;;;;;;;;;;;;-144.99;89.54;52607.09;4981548;28;19929;-74
2022/12/04 10:00:36;;;;;;;;;;;;;;;-144.99;88.90;52594.84;4976166;28;20267;-74
2022/12/04 10:03:05;;;;;;;;;;;;;;;-144.99;88.39;52627.47;4973808;28;20371;-75
2022/12/04 10:05:42;;;;;;;;;;;;;;;-144.99;88.05;52631.53;4976211;28;20002;-75
2022/12/04 10:08:12;;;;;;;;;;;;;;;-144.99;88.02;52623.38;4628778;28;9999929;-74
2022/12/04 10:10:40;;;;;;;;;;;;;;;-144.99;87.63;52621.34;4980282;28;19941;-73
2022/12/04 10:13:12;;;;;;;;;;;;;;;-144.99;87.02;52627.47;4975184;28;19944;-75
2022/12/04 10:15:42;;;;;;;;;;;;;;;-144.99;87.00;52660.09;4980267;28;20434;-75
2022/12/04 10:18:17;;;;;;;;;;;;;;;-144.99;86.49;52639.69;4981229;28;19950;-74
2022/12/04 10:20:50;;;;;;;;;;;;;;;-144.99;86.30;52668.22;4979662;28;19934;-75
2022/12/04 10:23:23;;;;;;;;;;;;;;;-144.99;85.79;52592.81;4982448;28;19960;-74
2022/12/04 10:25:50;;;;;;;;;;;;;;;-144.99;85.61;52598.94;4981043;28;19961;-73
2022/12/04 10:28:22;;;;;;;;;;;;;;;-144.99;85.21;52619.31;4989092;28;20432;-74
2022/12/04 10:30:50;;;;;;;;;;;;;;;-144.99;85.12;52584.66;4989961;28;20037;-73
2022/12/04 10:33:19;;;;;;;;;;;;;;;-144.99;84.49;52676.38;4636945;28;10000196;-75
2022/12/04 10:35:47;;;;;;;;;;;;;;;-144.99;84.02;52603.00;4974182;28;20296;-75
2022/12/04 10:38:23;;;;;;;;;;;;;;;-144.99;82.95;52596.88;4983466;28;20501;-76
2022/12/04 10:40:52;;;;;;;;;;;;;;;-144.99;82.76;52643.78;4983519;28;20414;-74
2022/12/04 10:43:25;;;;;;;;;;;;;;;-144.99;82.74;52623.38;4977403;28;19957;-75
2022/12/04 10:45:52;;;;;;;;;;;;;;;-144.99;82.86;52590.78;4973194;28;19929;-75
2022/12/04 10:48:23;;;;;;;;;;;;;;;-144.99;83.28;52611.16;4985745;28;19933;-74
2022/12/04 10:50:50;;;;;;;;;;;;;;;-144.99;83.31;52619.31;4981421;28;19947;-74
2022/12/04 10:53:21;;;;;;;;;;;;;;;-144.99;83.60;52586.69;4974267;28;19940;-75
2022/12/04 10:55:47;;;;;;;;;;;;;;;-144.99;83.57;52623.38;4986174;28;19971;-75
2022/12/04 10:58:15;;;;;;;;;;;;;;;-144.99;83.73;52619.31;4981414;28;19940;-74
2022/12/04 11:00:42;;;;;;;;;;;;;;;-144.99;84.16;52623.38;4985175;28;19949;-75
2022/12/04 11:03:10;;;;;;;;;;;;;;;-144.99;83.87;52598.94;4978357;28;20271;-75
2022/12/04 11:05:38;;;;;;;;;;;;;;;-144.99;84.10;52639.69;4984286;28;19960;-73
2022/12/04 11:08:07;;;;;;;;;;;;;;;-144.99;84.03;52643.78;4980343;28;19950;-75
2022/12/04 11:10:36;;;;;;;;;;;;;;;-144.99;84.14;52668.22;4981371;28;20024;-72
2022/12/04 11:13:04;;;;;;;;;;;;;;;-144.99;84.37;52623.38;4985938;28;19971;-74
2022/12/04 11:15:31;;;;;;;;;;;;;;;-144.99;84.45;52611.16;4982734;28;19930;-75
2022/12/04 11:18:06;;;;;;;;;;;;;;;-144.99;84.52;52594.84;4976195;28;20032;-75
2022/12/04 11:20:33;;;;;;;;;;;;;;;-144.99;84.81;52607.09;4979590;28;20386;-74
2022/12/04 11:23:00;;;;;;;;;;;;;;;-144.99;85.06;52627.47;4985211;28;19970;-74
2022/12/04 11:25:28;;;;;;;;;;;;;;;-144.99;85.05;52617.28;4985855;28;19967;-75
2022/12/04 11:27:59;;;;;;;;;;;;;;;-144.99;85.21;52611.16;4978191;28;20063;-75
2022/12/04 11:30:29;;;;;;;;;;;;;;;-144.99;85.59;52594.84;4979250;28;19942;-76
2022/12/04 11:32:56;;;;;;;;;;;;;;;-144.99;85.88;52627.47;4982124;28;20437;-74
2022/12/04 11:35:24;;;;;;;;;;;;;;;-144.99;85.86;52637.66;4985401;28;19958;-74
2022/12/04 11:37:52;;;;;;;;;;;;;;;-144.99;86.21;52603.00;4982193;28;20106;-75
2022/12/04 11:40:19;;;;;;;;;;;;;;;-144.99;86.02;52623.38;4975766;28;19945;-74
2022/12/04 11:42:58;;;;;;;;;;;;;;;-144.99;86.64;52619.31;4982349;28;19969;-75
2022/12/04 11:45:24;;;;;;;;;;;;;;;-144.99;86.79;52623.38;4983720;28;19960;-75
2022/12/04 11:47:54;;;;;;;;;;;;;;;-144.99;87.13;52635.63;4983946;28;19974;-76
2022/12/04 11:50:28;;;;;;;;;;;;;;;-144.99;87.74;52635.63;4976012;28;20735;-73
2022/12/04 11:53:01;;;;;;;;;;;;;;;-144.99;87.86;52582.63;4984931;28;19948;-75
2022/12/04 11:55:32;;;;;;;;;;;;;;;-144.99;88.09;52586.69;4981296;28;19965;-74
2022/12/04 11:58:08;;;;;;;;;;;;;;;-144.99;87.80;52635.63;4979516;28;20014;-74
2022/12/04 12:00:39;;;;;;;;;;;;;;;-144.99;87.70;52631.53;4988789;28;20006;-75
2022/12/04 12:03:15;;;;;;;;;;;;;;;-144.99;87.83;52645.81;4981226;28;20408;-73
2022/12/04 12:05:49;;;;;;;;;;;;;;;-144.99;87.95;52664.16;4980627;28;19968;-72
2022/12/04 12:08:23;;;;;;;;;;;;;;;-144.99;88.16;52645.81;4987264;28;19940;-74
2022/12/04 12:10:56;;;;;;;;;;;;;;;-144.99;88.39;52651.94;4986641;28;20145;-73
2022/12/04 12:13:27;;;;;;;;;;;;;;;-144.99;88.67;52631.53;4993385;28;19940;-72
2022/12/04 12:16:01;;;;;;;;;;;;;;;-144.99;88.33;52639.69;4985969;28;19965;-73
2022/12/04 12:18:37;;;;;;;;;;;;;;;-144.99;88.64;52625.44;4979568;28;20523;-74
2022/12/04 12:21:08;;;;;;;;;;;;;;;-144.99;88.65;52635.63;4986356;28;19966;-74
2022/12/04 12:23:43;;;;;;;;;;;;;;;-144.99;88.53;52623.38;4985611;28;20208;-74
2022/12/04 12:26:11;;;;;;;;;;;;;;;-144.99;88.94;52619.31;4978226;28;19969;-73
2022/12/04 12:28:54;;;;;;;;;;;;;;;-144.99;88.86;52627.47;4983401;28;19989;-75
2022/12/04 12:31:30;;;;;;;;;;;;;;;-144.99;88.72;52598.94;4989078;28;20232;-73
2022/12/04 12:34:01;;;;;;;;;;;;;;;-144.99;88.69;52619.31;4976355;28;19930;-74
2022/12/04 12:36:31;;;;;;;;;;;;;;;-144.99;88.84;52596.88;4999684;28;19957;-73
2022/12/04 12:39:01;;;;;;;;;;;;;;;-144.99;88.51;52647.84;4992341;28;19979;-74
2022/12/04 12:41:32;;;;;;;;;;;;;;;-144.99;88.65;52562.25;4988097;28;19946;-72
2022/12/04 12:44:03;;;;;;;;;;;;;;;-144.99;88.77;52656.00;4980819;28;20520;-73